createdAt,value
2023-03-04T00:01:48.255Z,99729.00
2023-03-04T00:04:17.415Z,99727.00
2023-03-04T00:06:46.277Z,99728.00
2023-03-04T00:09:15.041Z,99736.00
2023-03-04T00:11:43.848Z,99728.00
2023-03-04T00:14:12.628Z,99734.00
2023-03-04T00:16:41.567Z,99741.00
2023-03-04T00:19:12.225Z,99744.00
2023-03-04T00:21:41.056Z,99741.00
2023-03-04T00:24:09.854Z,99751.00
2023-03-04T00:26:38.660Z,99755.00
2023-03-04T00:29:07.464Z,99756.00
2023-03-04T00:31:36.262Z,99761.00
2023-03-04T00:34:05.127Z,99763.00
2023-03-04T00:36:33.913Z,99759.00
2023-03-04T00:39:02.714Z,99771.00
2023-03-04T00:41:31.544Z,99775.00
2023-03-04T00:44:00.317Z,99777.00
2023-03-04T00:46:29.121Z,99782.00
2023-03-04T00:48:57.877Z,99783.00
2023-03-04T00:51:26.619Z,99791.00
2023-03-04T00:53:55.383Z,99799.00
2023-03-04T00:56:24.048Z,99796.00
2023-03-04T00:58:52.706Z,99805.00
2023-03-04T01:01:21.474Z,99797.00
2023-03-04T01:03:50.330Z,99795.00
2023-03-04T01:06:19.088Z,99800.00
2023-03-04T01:08:47.888Z,99804.00
2023-03-04T01:11:16.781Z,99805.00
2023-03-04T01:15:02.153Z,99811.00
2023-03-04T01:17:31.424Z,99810.00
2023-03-04T01:20:00.585Z,99813.00
2023-03-04T01:22:29.697Z,99819.00
2023-03-04T01:24:59.007Z,99823.00
2023-03-04T01:27:28.342Z,99826.00
2023-03-04T01:29:57.486Z,99823.00
2023-03-04T01:32:26.766Z,99829.00
2023-03-04T01:34:55.888Z,99830.00
2023-03-04T01:37:25.056Z,99829.00
2023-03-04T01:39:54.341Z,99843.00
2023-03-04T01:42:27.469Z,99840.00
2023-03-04T01:44:56.652Z,99837.00
2023-03-04T01:47:31.190Z,99844.00
2023-03-04T01:50:02.972Z,99853.00
2023-03-04T01:52:32.302Z,99846.00
2023-03-04T01:55:01.781Z,99858.00
2023-03-04T01:57:37.533Z,99858.00
2023-03-04T02:00:34.041Z,99868.00
2023-03-04T02:03:13.533Z,99873.00
2023-03-04T02:05:47.168Z,99870.00
2023-03-04T02:08:19.330Z,99875.00
2023-03-04T02:10:49.660Z,99872.00
2023-03-04T02:13:20.002Z,99883.00
2023-03-04T02:15:50.177Z,99890.00
2023-03-04T02:18:25.903Z,99889.00
2023-03-04T02:21:30.033Z,99886.00
2023-03-04T02:24:27.822Z,99884.00
2023-03-04T02:26:57.081Z,99885.00
2023-03-04T02:29:26.547Z,99890.00
2023-03-04T02:31:56.877Z,99888.00
2023-03-04T02:34:38.091Z,99888.00
2023-03-04T02:37:08.558Z,99888.00
2023-03-04T02:39:45.016Z,99890.00
2023-03-04T02:42:14.588Z,99886.00
2023-03-04T02:44:49.353Z,99885.00
2023-03-04T02:47:20.430Z,99879.00
2023-03-04T02:49:50.152Z,99883.00
2023-03-04T02:52:26.005Z,99884.00
2023-03-04T02:54:55.156Z,99882.00
2023-03-04T02:57:24.392Z,99873.00
2023-03-04T02:59:53.610Z,99870.00
2023-03-04T03:02:22.790Z,99882.00
2023-03-04T03:04:52.003Z,99873.00
2023-03-04T03:07:21.231Z,99871.00
2023-03-04T03:09:50.459Z,99868.00
2023-03-04T03:12:19.624Z,99868.00
2023-03-04T03:14:48.910Z,99869.00
2023-03-04T03:17:18.149Z,99867.00
2023-03-04T03:19:47.318Z,99870.00
2023-03-04T03:22:16.482Z,99872.00
2023-03-04T03:24:45.761Z,99862.00
2023-03-04T03:27:14.993Z,99849.00
2023-03-04T03:29:44.271Z,99859.00
2023-03-04T03:32:13.506Z,99857.00
2023-03-04T03:34:42.704Z,99852.00
2023-03-04T03:37:12.126Z,99852.00
2023-03-04T03:39:41.417Z,99854.00
2023-03-04T03:42:10.748Z,99850.00
2023-03-04T03:44:39.924Z,99852.00
2023-03-04T03:47:09.155Z,99834.00
2023-03-04T03:49:38.375Z,99838.00
2023-03-04T03:52:09.317Z,99826.00
2023-03-04T03:54:39.037Z,99829.00
2023-03-04T03:57:08.485Z,99826.00
2023-03-04T03:59:37.669Z,99829.00
2023-03-04T04:02:07.223Z,99825.00
2023-03-04T04:04:36.450Z,99809.00
2023-03-04T04:07:05.632Z,99806.00
2023-03-04T04:09:34.888Z,99804.00
2023-03-04T04:12:07.233Z,99796.00
2023-03-04T04:14:36.929Z,99797.00
2023-03-04T04:17:06.479Z,99786.00
2023-03-04T04:19:36.074Z,99791.00
2023-03-04T04:22:05.780Z,99785.00
2023-03-04T04:24:35.319Z,99776.00
2023-03-04T04:27:05.460Z,99778.00
2023-03-04T04:29:34.625Z,99775.00
2023-03-04T04:32:03.961Z,99767.00
2023-03-04T04:34:33.106Z,99766.00
2023-03-04T04:37:02.462Z,99740.00
2023-03-04T04:39:31.876Z,99748.00
2023-03-04T04:42:01.004Z,99743.00
2023-03-04T04:44:30.154Z,99727.00
2023-03-04T04:46:59.241Z,99716.00
2023-03-04T04:49:28.355Z,99717.00
2023-03-04T04:51:57.466Z,99717.00
2023-03-04T04:54:26.688Z,99705.00
2023-03-04T04:56:56.185Z,99699.00
2023-03-04T04:59:25.640Z,99698.00
2023-03-04T05:01:54.800Z,99698.00
2023-03-04T05:04:23.950Z,99685.00
2023-03-04T05:06:53.040Z,99682.00
2023-03-04T05:09:23.946Z,99678.00
2023-03-04T05:11:53.395Z,99676.00
2023-03-04T05:14:22.688Z,99673.00
2023-03-04T05:16:53.931Z,99659.00
2023-03-04T05:19:23.680Z,99660.00
2023-03-04T05:21:52.906Z,99652.00
2023-03-04T05:24:22.280Z,99646.00
2023-03-04T05:26:51.505Z,99651.00
2023-03-04T05:29:20.763Z,99649.00
2023-03-04T05:31:50.009Z,99642.00
2023-03-04T05:34:19.367Z,99639.00
2023-03-04T05:36:48.609Z,99628.00
2023-03-04T05:39:17.946Z,99622.00
2023-03-04T05:41:47.182Z,99626.00
2023-03-04T05:44:16.404Z,99614.00
2023-03-04T05:46:45.647Z,99606.00
2023-03-04T05:49:14.955Z,99595.00
2023-03-04T05:51:44.129Z,99598.00
2023-03-04T05:54:13.389Z,99584.00
2023-03-04T05:56:42.923Z,99579.00
2023-03-04T05:59:12.210Z,99579.00
2023-03-04T06:01:41.432Z,99575.00
2023-03-04T06:04:10.698Z,99570.00
2023-03-04T06:06:39.888Z,99565.00
2023-03-04T06:09:09.212Z,99565.00
2023-03-04T06:11:38.451Z,99553.00
2023-03-04T06:14:08.289Z,99550.00
2023-03-04T06:16:37.673Z,99546.00
2023-03-04T06:19:06.743Z,99543.00
2023-03-04T06:21:35.876Z,99532.00
2023-03-04T06:24:05.086Z,99527.00
2023-03-04T06:26:34.189Z,99528.00
2023-03-04T06:29:03.294Z,99516.00
2023-03-04T06:31:32.471Z,99516.00
2023-03-04T06:34:01.580Z,99507.00
2023-03-04T06:36:30.758Z,99496.00
2023-03-04T06:38:59.865Z,99493.00
2023-03-04T06:41:28.968Z,99488.00
2023-03-04T06:43:58.349Z,99486.00
2023-03-04T06:46:30.419Z,99481.00
2023-03-04T06:48:59.689Z,99476.00
2023-03-04T06:51:29.569Z,99471.00
2023-03-04T06:53:59.060Z,99466.00
2023-03-04T06:56:28.239Z,99461.00
2023-03-04T06:58:57.400Z,99452.00
2023-03-04T07:01:29.829Z,99447.00
2023-03-04T07:03:59.914Z,99444.00
2023-03-04T07:06:30.424Z,99435.00
2023-03-04T07:09:00.134Z,99437.00
2023-03-04T07:11:29.544Z,99430.00
2023-03-04T07:13:58.718Z,99419.00
2023-03-04T07:16:27.899Z,99414.00
2023-03-04T07:18:57.056Z,99412.00
2023-03-04T07:21:26.292Z,99406.00
2023-03-04T07:23:55.724Z,99411.00
2023-03-04T07:26:25.545Z,99397.00
2023-03-04T07:28:55.548Z,99394.00
2023-03-04T07:31:35.097Z,99382.00
2023-03-04T07:34:09.277Z,99377.00
2023-03-04T07:36:39.590Z,99373.00
2023-03-04T07:39:09.626Z,99373.00
2023-03-04T07:41:38.807Z,99369.00
2023-03-04T07:44:12.786Z,99359.00
2023-03-04T07:46:42.841Z,99360.00
2023-03-04T07:49:15.152Z,99359.00
2023-03-04T07:51:44.305Z,99353.00
2023-03-04T07:54:13.478Z,99356.00
2023-03-04T07:56:42.664Z,99364.00
2023-03-04T07:59:11.791Z,99359.00
2023-03-04T08:01:41.292Z,99346.00
2023-03-04T08:04:10.712Z,99341.00
2023-03-04T08:06:42.154Z,99343.00
2023-03-04T08:09:14.619Z,99345.00
2023-03-04T08:11:44.679Z,99336.00
2023-03-04T08:14:17.159Z,99333.00
2023-03-04T08:16:46.365Z,99330.00
2023-03-04T08:19:16.177Z,99327.00
2023-03-04T08:21:45.786Z,99320.00
2023-03-04T08:24:15.035Z,99328.00
2023-03-04T08:26:49.152Z,99318.00
2023-03-04T08:29:25.012Z,99317.00
2023-03-04T08:31:56.623Z,99322.00
2023-03-04T08:34:30.394Z,99320.00
2023-03-04T08:37:00.049Z,99319.00
2023-03-04T08:39:29.553Z,99320.00
2023-03-04T08:41:58.636Z,99316.00
2023-03-04T08:44:27.944Z,99314.00
2023-03-04T08:46:57.096Z,99310.00
2023-03-04T08:49:26.234Z,99307.00
2023-03-04T08:51:55.354Z,99311.00
2023-03-04T08:54:24.495Z,99307.00
2023-03-04T08:56:53.635Z,99309.00
2023-03-04T08:59:22.817Z,99311.00
2023-03-04T09:01:52.070Z,99307.00
2023-03-04T09:04:21.212Z,99300.00
2023-03-04T09:06:51.475Z,99306.00
2023-03-04T09:09:22.083Z,99308.00
2023-03-04T09:11:51.314Z,99314.00
2023-03-04T09:14:20.506Z,99307.00
2023-03-04T09:16:49.637Z,99300.00
2023-03-04T09:19:18.857Z,99310.00
2023-03-04T09:21:47.999Z,99305.00
2023-03-04T09:24:17.424Z,99314.00
2023-03-04T09:26:46.989Z,99311.00
2023-03-04T09:29:16.096Z,99308.00
2023-03-04T09:31:45.418Z,99307.00
2023-03-04T09:34:14.802Z,99311.00
2023-03-04T09:36:44.042Z,99312.00
2023-03-04T09:39:13.536Z,99312.00
2023-03-04T09:41:58.920Z,99312.00
2023-03-04T09:44:42.677Z,99304.00
2023-03-04T09:47:19.351Z,99310.00
2023-03-04T09:50:10.421Z,99306.00
2023-03-04T09:53:28.929Z,99308.00
2023-03-04T09:55:58.767Z,99307.00
2023-03-04T09:58:58.118Z,99313.00
2023-03-04T10:01:43.092Z,99308.00
2023-03-04T10:04:58.422Z,99305.00
2023-03-04T10:07:41.036Z,99308.00
2023-03-04T10:10:20.873Z,99312.00
2023-03-04T10:12:53.644Z,99314.00
2023-03-04T10:15:41.777Z,99305.00
2023-03-04T10:18:23.437Z,99315.00
2023-03-04T10:21:23.464Z,99317.00
2023-03-04T10:23:54.527Z,99315.00
2023-03-04T10:26:26.592Z,99322.00
2023-03-04T10:28:55.817Z,99320.00
2023-03-04T10:31:42.948Z,99326.00
2023-03-04T10:34:17.971Z,99323.00
2023-03-04T10:37:09.802Z,99329.00
2023-03-04T10:39:50.342Z,99336.00
2023-03-04T10:42:20.672Z,99328.00
2023-03-04T10:44:56.342Z,99332.00
2023-03-04T10:47:31.391Z,99339.00
2023-03-04T10:50:06.915Z,99336.00
2023-03-04T10:52:54.160Z,99338.00
2023-03-04T10:55:45.317Z,99349.00
2023-03-04T10:58:20.206Z,99343.00
2023-03-04T11:01:18.586Z,99350.00
2023-03-04T11:03:52.244Z,99344.00
2023-03-04T11:06:24.132Z,99346.00
2023-03-04T11:09:01.846Z,99349.00
2023-03-04T11:11:45.413Z,99358.00
2023-03-04T11:14:45.905Z,99360.00
2023-03-04T11:17:45.344Z,99352.00
2023-03-04T11:20:37.350Z,99357.00
2023-03-04T11:23:46.560Z,99360.00
2023-03-04T11:26:36.520Z,99364.00
2023-03-04T11:30:19.216Z,99373.00
2023-03-04T11:32:53.006Z,99371.00
2023-03-04T11:35:43.598Z,99375.00
2023-03-04T11:38:27.006Z,99377.00
2023-03-04T11:41:41.473Z,99379.00
2023-03-04T11:47:38.142Z,99380.00
2023-03-04T11:50:15.894Z,99393.00
2023-03-04T11:53:21.154Z,99394.00
2023-03-04T11:56:17.237Z,99403.00
2023-03-04T11:59:26.556Z,99402.00
2023-03-04T12:02:24.686Z,99410.00
2023-03-04T12:05:17.578Z,99411.00
2023-03-04T12:08:38.089Z,99418.00
2023-03-04T12:11:41.333Z,99415.00
2023-03-04T12:14:27.332Z,99430.00
2023-03-04T12:17:38.835Z,99421.00
2023-03-04T12:20:47.471Z,99432.00
2023-03-04T12:27:03.254Z,99439.00
2023-03-04T12:29:44.339Z,99445.00
2023-03-04T12:32:53.024Z,99451.00
2023-03-04T12:35:54.654Z,99451.00
2023-03-04T12:39:27.263Z,99467.00
2023-03-04T12:42:11.074Z,99471.00
2023-03-04T12:44:52.257Z,99474.00
2023-03-04T12:47:44.548Z,99481.00
2023-03-04T12:50:58.029Z,99484.00
2023-03-04T12:53:49.363Z,99493.00
2023-03-04T12:56:52.151Z,99499.00
2023-03-04T12:59:25.126Z,99501.00
2023-03-04T13:02:38.397Z,99504.00
2023-03-04T13:05:26.400Z,99506.00
2023-03-04T13:08:16.287Z,99513.00
2023-03-04T13:10:49.098Z,99516.00
2023-03-04T13:13:40.936Z,99518.00
2023-03-04T13:16:40.248Z,99525.00
2023-03-04T13:19:53.807Z,99527.00
2023-03-04T13:22:41.544Z,99536.00
2023-03-04T13:25:31.611Z,99541.00
2023-03-04T13:28:13.846Z,99546.00
2023-03-04T13:31:13.560Z,99553.00
2023-03-04T13:33:54.227Z,99565.00
2023-03-04T13:36:58.016Z,99572.00
2023-03-04T13:39:30.663Z,99572.00
2023-03-04T13:42:00.707Z,99576.00
2023-03-04T13:45:02.187Z,99575.00
2023-03-04T13:47:46.776Z,99583.00
2023-03-04T13:50:47.496Z,99591.00
2023-03-04T13:53:40.820Z,99589.00
2023-03-04T13:56:24.016Z,99592.00
2023-03-04T13:59:04.065Z,99604.00
2023-03-04T14:01:51.010Z,99599.00
2023-03-04T14:04:36.321Z,99615.00
2023-03-04T14:07:28.068Z,99615.00
2023-03-04T14:10:14.798Z,99612.00
2023-03-04T14:12:59.333Z,99618.00
2023-03-04T14:15:32.936Z,99618.00
2023-03-04T14:18:06.100Z,99613.00
2023-03-04T14:20:39.688Z,99619.00
2023-03-04T14:23:33.180Z,99623.00
2023-03-04T14:26:15.782Z,99628.00
2023-03-04T14:28:51.023Z,99628.00
2023-03-04T14:31:23.956Z,99630.00
2023-03-04T14:34:05.664Z,99628.00
2023-03-04T14:36:38.309Z,99635.00
2023-03-04T14:39:09.386Z,99635.00
2023-03-04T14:41:44.162Z,99637.00
2023-03-04T14:44:40.550Z,99643.00
2023-03-04T14:47:41.934Z,99643.00
2023-03-04T14:50:19.187Z,99643.00
2023-03-04T14:52:55.051Z,99641.00
2023-03-04T14:55:29.447Z,99649.00
2023-03-04T14:58:26.212Z,99647.00
2023-03-04T15:01:27.636Z,99643.00
2023-03-04T15:04:12.133Z,99648.00
2023-03-04T15:06:52.516Z,99647.00
2023-03-04T15:09:28.874Z,99639.00
2023-03-04T15:12:07.522Z,99648.00
2023-03-04T15:14:52.913Z,99649.00
2023-03-04T15:18:00.000Z,99647.00
2023-03-04T15:20:33.283Z,99654.00
2023-03-04T15:23:08.245Z,99652.00
2023-03-04T15:25:38.053Z,99648.00
2023-03-04T15:28:18.025Z,99654.00
2023-03-04T15:30:48.486Z,99651.00
2023-03-04T15:33:19.952Z,99657.00
2023-03-04T15:36:04.849Z,99656.00
2023-03-04T15:38:34.282Z,99653.00
2023-03-04T15:41:04.158Z,99651.00
2023-03-04T15:43:33.373Z,99653.00
2023-03-04T15:46:02.617Z,99647.00
2023-03-04T15:48:32.039Z,99654.00
2023-03-04T15:51:04.543Z,99649.00
2023-03-04T15:53:43.169Z,99648.00
2023-03-04T15:56:20.463Z,99651.00
2023-03-04T15:58:58.142Z,99649.00
2023-03-04T16:01:27.895Z,99653.00
2023-03-04T16:03:57.162Z,99649.00
2023-03-04T16:06:31.985Z,99646.00
2023-03-04T16:09:04.245Z,99653.00
2023-03-04T16:11:45.343Z,99648.00
2023-03-04T16:14:18.604Z,99650.00
2023-03-04T16:16:48.042Z,99647.00
2023-03-04T16:19:17.467Z,99646.00
2023-03-04T16:21:47.434Z,99648.00
2023-03-04T16:24:22.943Z,99647.00
2023-03-04T16:26:53.747Z,99647.00
2023-03-04T16:29:23.005Z,99653.00
2023-03-04T16:31:52.295Z,99645.00
2023-03-04T16:34:21.471Z,99646.00
2023-03-04T16:36:50.821Z,99647.00
2023-03-04T16:39:26.961Z,99649.00
2023-03-04T16:41:56.324Z,99644.00
2023-03-04T16:44:25.573Z,99655.00
2023-03-04T16:46:55.591Z,99646.00
2023-03-04T16:49:24.781Z,99641.00
2023-03-04T16:51:54.073Z,99636.00
2023-03-04T16:54:41.771Z,99634.00
2023-03-04T16:57:12.018Z,99636.00
2023-03-04T16:59:41.552Z,99635.00
2023-03-04T17:02:31.457Z,99624.00
2023-03-04T17:05:00.719Z,99630.00
2023-03-04T17:07:29.987Z,99631.00
2023-03-04T17:09:59.273Z,99629.00
2023-03-04T17:12:28.719Z,99630.00
2023-03-04T17:14:57.968Z,99624.00
2023-03-04T17:17:27.147Z,99623.00
2023-03-04T17:19:56.341Z,99624.00
2023-03-04T17:22:26.505Z,99621.00
2023-03-04T17:24:55.715Z,99615.00
2023-03-04T17:27:24.927Z,99614.00
2023-03-04T17:29:54.293Z,99613.00
2023-03-04T17:32:24.034Z,99609.00
2023-03-04T17:34:56.786Z,99604.00
2023-03-04T17:37:26.740Z,99604.00
2023-03-04T17:39:55.996Z,99596.00
2023-03-04T17:42:25.259Z,99595.00
2023-03-04T17:44:54.505Z,99593.00
2023-03-04T17:47:23.802Z,99590.00
2023-03-04T17:49:53.137Z,99594.00
2023-03-04T17:52:22.378Z,99583.00
2023-03-04T17:54:51.689Z,99589.00
2023-03-04T17:57:20.945Z,99586.00
2023-03-04T17:59:50.159Z,99592.00
2023-03-04T18:02:19.544Z,99595.00
2023-03-04T18:04:51.140Z,99585.00
2023-03-04T18:07:20.489Z,99581.00
2023-03-04T18:09:49.668Z,99585.00
2023-03-04T18:12:18.862Z,99584.00
2023-03-04T18:14:48.110Z,99581.00
2023-03-04T18:17:17.312Z,99580.00
2023-03-04T18:19:46.521Z,99582.00
2023-03-04T18:22:15.712Z,99580.00
2023-03-04T18:24:44.981Z,99587.00
2023-03-04T18:27:14.169Z,99575.00
2023-03-04T18:29:43.389Z,99574.00
2023-03-04T18:32:12.917Z,99575.00
2023-03-04T18:34:42.122Z,99571.00
2023-03-04T18:37:12.581Z,99570.00
2023-03-04T18:39:41.904Z,99569.00
2023-03-04T18:42:11.164Z,99561.00
2023-03-04T18:44:40.498Z,99563.00
2023-03-04T18:47:11.567Z,99563.00
2023-03-04T18:49:47.162Z,99562.00
2023-03-04T18:52:16.891Z,99554.00
2023-03-04T18:54:46.163Z,99554.00
2023-03-04T18:57:17.796Z,99549.00
2023-03-04T19:00:01.856Z,99549.00
2023-03-04T19:02:46.363Z,99543.00
2023-03-04T19:05:27.734Z,99541.00
2023-03-04T19:07:57.281Z,99535.00
2023-03-04T19:10:27.041Z,99537.00
2023-03-04T19:12:58.423Z,99534.00
2023-03-04T19:15:29.172Z,99529.00
2023-03-04T19:17:58.420Z,99522.00
2023-03-04T19:20:27.628Z,99517.00
2023-03-04T19:22:56.863Z,99518.00
2023-03-04T19:25:26.076Z,99515.00
2023-03-04T19:27:56.690Z,99522.00
2023-03-04T19:30:26.257Z,99521.00
2023-03-04T19:32:56.058Z,99518.00
2023-03-04T19:35:25.339Z,99525.00
2023-03-04T19:37:54.551Z,99526.00
2023-03-04T19:40:24.270Z,99521.00
2023-03-04T19:42:53.471Z,99518.00
2023-03-04T19:45:22.701Z,99518.00
2023-03-04T19:47:51.919Z,99514.00
2023-03-04T19:50:21.278Z,99516.00
2023-03-04T19:52:50.460Z,99522.00
2023-03-04T19:55:19.841Z,99511.00
2023-03-04T19:57:49.034Z,99514.00
2023-03-04T20:00:18.827Z,99510.00
2023-03-04T20:02:50.041Z,99508.00
2023-03-04T20:05:19.393Z,99509.00
2023-03-04T20:07:48.587Z,99506.00
2023-03-04T20:10:19.836Z,99506.00
2023-03-04T20:12:49.056Z,99501.00
2023-03-04T20:15:18.370Z,99501.00
2023-03-04T20:17:47.578Z,99504.00
2023-03-04T20:20:17.476Z,99506.00
2023-03-04T20:22:46.693Z,99495.00
2023-03-04T20:25:16.016Z,99502.00
2023-03-04T20:27:45.217Z,99501.00
2023-03-04T20:30:15.541Z,99507.00
2023-03-04T20:32:44.833Z,99499.00
2023-03-04T20:35:16.053Z,99507.00
2023-03-04T20:37:45.411Z,99509.00
2023-03-04T20:40:15.783Z,99511.00
2023-03-04T20:42:45.054Z,99510.00
2023-03-04T20:45:14.348Z,99500.00
2023-03-04T20:47:43.595Z,99502.00
2023-03-04T20:50:13.287Z,99509.00
2023-03-04T20:52:42.476Z,99497.00
2023-03-04T20:55:12.296Z,99502.00
2023-03-04T20:57:41.510Z,99505.00
2023-03-04T21:00:11.841Z,99495.00
2023-03-04T21:02:41.118Z,99497.00
2023-03-04T21:05:10.707Z,99498.00
2023-03-04T21:07:39.938Z,99506.00
2023-03-04T21:10:09.889Z,99496.00
2023-03-04T21:12:39.098Z,99501.00
2023-03-04T21:15:09.365Z,99512.00
2023-03-04T21:17:38.610Z,99507.00
2023-03-04T21:20:08.619Z,99506.00
2023-03-04T21:22:37.836Z,99507.00
2023-03-04T21:25:07.797Z,99515.00
2023-03-04T21:27:43.556Z,99516.00
2023-03-04T21:30:13.810Z,99516.00
2023-03-04T21:32:43.800Z,99509.00
2023-03-04T21:35:16.210Z,99513.00
2023-03-04T21:37:45.457Z,99521.00
2023-03-04T21:40:15.249Z,99516.00
2023-03-04T21:42:44.558Z,99515.00
2023-03-04T21:45:13.823Z,99518.00
2023-03-04T21:47:43.089Z,99516.00
2023-03-04T21:50:12.949Z,99526.00
2023-03-04T21:52:42.339Z,99533.00
2023-03-04T21:55:12.150Z,99532.00
2023-03-04T21:57:41.335Z,99523.00
2023-03-04T22:00:11.635Z,99533.00
2023-03-04T22:02:41.010Z,99531.00
2023-03-04T22:05:10.642Z,99530.00
2023-03-04T22:07:39.881Z,99536.00
2023-03-04T22:10:09.815Z,99544.00
2023-03-04T22:12:39.003Z,99540.00
2023-03-04T22:15:10.052Z,99553.00
2023-03-04T22:17:39.427Z,99548.00
2023-03-04T22:20:09.531Z,99550.00
2023-03-04T22:22:38.721Z,99557.00
2023-03-04T22:25:08.521Z,99564.00
2023-03-04T22:27:37.718Z,99557.00
2023-03-04T22:30:07.616Z,99565.00
2023-03-04T22:32:36.879Z,99568.00
2023-03-04T22:35:06.647Z,99566.00
2023-03-04T22:37:35.838Z,99566.00
2023-03-04T22:40:06.115Z,99566.00
2023-03-04T22:42:36.453Z,99574.00
2023-03-04T22:45:06.093Z,99575.00
2023-03-04T22:47:35.365Z,99579.00
2023-03-04T22:50:05.263Z,99577.00
2023-03-04T22:52:34.564Z,99583.00
2023-03-04T22:55:03.916Z,99584.00
2023-03-04T22:57:33.432Z,99590.00
2023-03-04T23:00:02.736Z,99586.00
2023-03-04T23:02:32.020Z,99592.00
2023-03-04T23:05:01.261Z,99598.00
2023-03-04T23:07:30.510Z,99590.00
2023-03-04T23:09:59.797Z,99599.00
2023-03-04T23:12:29.003Z,99599.00
2023-03-04T23:14:59.146Z,99598.00
2023-03-04T23:17:28.792Z,99599.00
2023-03-04T23:19:57.934Z,99598.00
2023-03-04T23:22:27.175Z,99610.00
2023-03-04T23:24:58.576Z,99608.00
2023-03-04T23:27:27.849Z,99617.00
2023-03-04T23:29:56.981Z,99616.00
2023-03-04T23:32:26.186Z,99619.00
2023-03-04T23:34:56.405Z,99622.00
2023-03-04T23:37:25.888Z,99623.00
2023-03-04T23:39:54.977Z,99632.00
2023-03-04T23:42:24.107Z,99625.00
2023-03-04T23:44:53.321Z,99630.00
2023-03-04T23:47:22.456Z,99639.00
2023-03-04T23:49:51.650Z,99642.00
2023-03-04T23:52:20.812Z,99642.00
2023-03-04T23:54:50.012Z,99649.00
2023-03-04T23:57:19.257Z,99647.00
2023-03-04T23:59:48.361Z,99651.00
